createdAt,value
2023-03-23T16:02:25.698Z,1.67
2023-03-23T16:08:27.753Z,2.33
2023-03-23T16:14:29.663Z,2.27
2023-03-23T16:20:33.146Z,2.77
2023-03-23T16:26:36.449Z,3.03
2023-03-23T16:38:49.659Z,3.30
2023-03-23T16:44:54.714Z,2.17
2023-03-23T16:50:57.486Z,2.20
2023-03-23T16:56:59.764Z,1.83
2023-03-23T17:03:01.861Z,1.57
2023-03-23T17:09:03.955Z,1.40
2023-03-23T17:15:08.407Z,3.40
2023-03-23T17:21:10.515Z,6.60
2023-03-23T17:27:12.551Z,9.17
2023-03-23T17:33:14.534Z,4.30
2023-03-23T17:39:16.823Z,5.07
2023-03-23T17:45:18.930Z,1.87
2023-03-23T17:51:21.286Z,1.40
2023-03-23T17:57:24.337Z,1.70
2023-03-23T18:03:26.393Z,1.20
2023-03-23T18:09:28.765Z,1.80
2023-03-23T18:15:33.379Z,1.47
2023-03-23T18:21:35.304Z,1.67
2023-03-23T18:27:37.213Z,1.50
2023-03-23T18:33:42.383Z,1.53
2023-03-23T18:39:44.298Z,1.40
2023-03-23T18:45:52.343Z,1.37
2023-03-23T18:51:54.403Z,1.37
2023-03-23T18:57:57.915Z,1.53
2023-03-23T19:04:00.193Z,1.50
2023-03-23T19:10:02.436Z,1.20
2023-03-23T19:16:04.728Z,1.60
2023-03-23T19:22:08.611Z,1.20
2023-03-23T19:29:03.284Z,1.80
2023-03-23T19:34:33.677Z,1.70
2023-03-23T19:40:42.167Z,1.47
2023-03-23T19:46:44.392Z,3.67
2023-03-23T19:52:47.303Z,1.90
2023-03-23T19:58:49.895Z,3.70
2023-03-23T20:04:52.430Z,1.80
2023-03-23T20:11:04.448Z,2.10
2023-03-23T20:17:09.708Z,3.40
2023-03-23T20:23:11.960Z,1.20
2023-03-23T20:29:13.857Z,2.10
2023-03-23T20:35:16.299Z,1.80
2023-03-23T20:41:18.275Z,1.47
2023-03-23T20:47:20.603Z,1.90
2023-03-23T20:53:28.642Z,1.60
2023-03-23T20:59:30.794Z,1.47
2023-03-23T21:05:32.666Z,1.90
2023-03-23T21:11:35.334Z,1.77
2023-03-23T21:17:37.288Z,1.90
2023-03-23T21:23:47.129Z,2.00
2023-03-23T21:29:49.214Z,1.50
2023-03-23T21:35:51.123Z,1.90
2023-03-23T21:41:53.098Z,2.00
2023-03-23T21:47:57.095Z,2.13
2023-03-23T21:53:59.083Z,1.50
2023-03-23T22:00:01.043Z,1.80
2023-03-23T22:06:10.422Z,1.83
2023-03-23T22:12:14.169Z,2.03
2023-03-23T22:18:16.638Z,1.77
2023-03-23T22:24:19.064Z,2.40
2023-03-23T22:30:21.086Z,1.70
2023-03-23T22:36:25.437Z,1.63
2023-03-23T22:42:27.847Z,1.63
2023-03-23T22:48:30.274Z,1.60
2023-03-23T22:54:32.263Z,1.70
2023-03-23T23:00:34.262Z,1.80
2023-03-23T23:06:36.473Z,1.60
2023-03-23T23:12:39.270Z,1.80
2023-03-23T23:18:41.307Z,1.47
2023-03-23T23:24:43.543Z,1.67
2023-03-23T23:30:46.894Z,1.37
2023-03-23T23:36:49.078Z,2.10
2023-03-23T23:42:52.530Z,2.10
2023-03-23T23:48:54.592Z,2.30
2023-03-23T23:54:56.578Z,2.10
